sensor_id;sensor_type;location;lat;lon;timestamp;pressure;altitude;pressure_sealevel;temperature;humidity
3812;BME280;1921;49.368;11.068;2023-02-28T00:01:28;98488.75;;;-4.31;85.73
3812;BME280;1921;49.368;11.068;2023-02-28T00:03:54;98541.84;;;-4.02;86.24
3812;BME280;1921;49.368;11.068;2023-02-28T00:06:20;98482.19;;;-4.37;86.39
3812;BME280;1921;49.368;11.068;2023-02-28T00:08:46;98467.22;;;-4.45;86.74
3812;BME280;1921;49.368;11.068;2023-02-28T00:11:13;98443.09;;;-4.56;86.32
3812;BME280;1921;49.368;11.068;2023-02-28T00:13:44;98460.72;;;-4.52;86.81
3812;BME280;1921;49.368;11.068;2023-02-28T00:16:19;98453.13;;;-4.53;87.39
3812;BME280;1921;49.368;11.068;2023-02-28T00:18:45;98504.84;;;-4.31;87.72
3812;BME280;1921;49.368;11.068;2023-02-28T00:21:12;98529.38;;;-4.08;87.67
3812;BME280;1921;49.368;11.068;2023-02-28T00:23:38;98492.00;;;-4.28;87.24
3812;BME280;1921;49.368;11.068;2023-02-28T00:26:04;98502.50;;;-4.15;87.71
3812;BME280;1921;49.368;11.068;2023-02-28T00:28:30;98503.50;;;-4.19;87.68
3812;BME280;1921;49.368;11.068;2023-02-28T00:30:56;98468.56;;;-4.36;88.14
3812;BME280;1921;49.368;11.068;2023-02-28T00:33:22;98495.13;;;-4.21;87.98
3812;BME280;1921;49.368;11.068;2023-02-28T00:35:48;98416.50;;;-4.70;88.02
3812;BME280;1921;49.368;11.068;2023-02-28T00:38:15;98463.72;;;-4.42;89.03
3812;BME280;1921;49.368;11.068;2023-02-28T00:40:42;98412.97;;;-4.66;88.99
3812;BME280;1921;49.368;11.068;2023-02-28T00:43:07;98429.56;;;-4.57;88.61
3812;BME280;1921;49.368;11.068;2023-02-28T00:45:33;98513.31;;;-4.10;88.78
3812;BME280;1921;49.368;11.068;2023-02-28T00:47:59;98539.69;;;-3.91;89.19
3812;BME280;1921;49.368;11.068;2023-02-28T00:50:24;98480.66;;;-4.21;89.51
3812;BME280;1921;49.368;11.068;2023-02-28T00:52:50;98469.09;;;-4.28;89.32
3812;BME280;1921;49.368;11.068;2023-02-28T00:55:16;98508.81;;;-4.03;89.13
3812;BME280;1921;49.368;11.068;2023-02-28T00:57:42;98487.25;;;-4.17;89.78
3812;BME280;1921;49.368;11.068;2023-02-28T01:00:08;98500.56;;;-4.10;89.42
3812;BME280;1921;49.368;11.068;2023-02-28T01:02:34;98460.66;;;-4.30;89.13
3812;BME280;1921;49.368;11.068;2023-02-28T01:05:00;98462.06;;;-4.23;89.70
3812;BME280;1921;49.368;11.068;2023-02-28T01:07:26;98473.53;;;-4.13;89.47
3812;BME280;1921;49.368;11.068;2023-02-28T01:09:51;98505.09;;;-3.96;90.16
3812;BME280;1921;49.368;11.068;2023-02-28T01:12:17;98511.31;;;-3.83;89.99
3812;BME280;1921;49.368;11.068;2023-02-28T01:14:43;98523.72;;;-3.75;90.48
3812;BME280;1921;49.368;11.068;2023-02-28T01:17:09;98413.84;;;-4.46;90.44
3812;BME280;1921;49.368;11.068;2023-02-28T01:19:35;98510.28;;;-3.79;89.81
3812;BME280;1921;49.368;11.068;2023-02-28T01:22:05;98403.53;;;-4.43;89.63
3812;BME280;1921;49.368;11.068;2023-02-28T01:24:31;98463.81;;;-4.04;89.97
3812;BME280;1921;49.368;11.068;2023-02-28T01:26:57;98477.13;;;-3.98;90.39
3812;BME280;1921;49.368;11.068;2023-02-28T01:29:23;98481.97;;;-3.92;89.84
3812;BME280;1921;49.368;11.068;2023-02-28T01:31:48;98462.06;;;-4.02;90.09
3812;BME280;1921;49.368;11.068;2023-02-28T01:34:14;98430.50;;;-4.19;90.11
3812;BME280;1921;49.368;11.068;2023-02-28T01:36:40;98477.56;;;-3.88;90.47
3812;BME280;1921;49.368;11.068;2023-02-28T01:39:05;98506.91;;;-3.80;90.61
3812;BME280;1921;49.368;11.068;2023-02-28T01:41:34;98502.06;;;-3.65;90.42
3812;BME280;1921;49.368;11.068;2023-02-28T01:44:55;98415.34;;;-4.22;90.27
3812;BME280;1921;49.368;11.068;2023-02-28T01:46:53;98437.59;;;-4.07;90.35
3812;BME280;1921;49.368;11.068;2023-02-28T01:49:18;98497.25;;;-3.71;90.14
3812;BME280;1921;49.368;11.068;2023-02-28T01:51:49;98508.63;;;-3.60;90.01
3812;BME280;1921;49.368;11.068;2023-02-28T01:54:27;98449.88;;;-3.96;89.96
3812;BME280;1921;49.368;11.068;2023-02-28T01:57:16;98445.19;;;-4.05;90.61
3812;BME280;1921;49.368;11.068;2023-02-28T01:59:58;98488.81;;;-3.73;90.54
3812;BME280;1921;49.368;11.068;2023-02-28T02:02:27;98427.56;;;-4.10;90.11
3812;BME280;1921;49.368;11.068;2023-02-28T02:05:00;98506.28;;;-3.64;90.66
3812;BME280;1921;49.368;11.068;2023-02-28T02:07:32;98472.97;;;-3.80;90.06
3812;BME280;1921;49.368;11.068;2023-02-28T02:10:18;98428.25;;;-4.06;90.25
3812;BME280;1921;49.368;11.068;2023-02-28T02:22:01;98411.44;;;-4.10;90.77
3812;BME280;1921;49.368;11.068;2023-02-28T02:25:16;98472.03;;;-3.77;90.95
3812;BME280;1921;49.368;11.068;2023-02-28T02:28:33;98494.16;;;-3.59;90.91
3812;BME280;1921;49.368;11.068;2023-02-28T02:31:35;98483.53;;;-3.69;91.08
3812;BME280;1921;49.368;11.068;2023-02-28T02:34:48;98424.22;;;-3.91;90.64
3812;BME280;1921;49.368;11.068;2023-02-28T02:37:47;98458.94;;;-3.70;90.74
3812;BME280;1921;49.368;11.068;2023-02-28T02:40:43;98436.75;;;-3.87;90.39
3812;BME280;1921;49.368;11.068;2023-02-28T02:43:19;98304.22;;;-4.62;90.87
3812;BME280;1921;49.368;11.068;2023-02-28T02:45:53;98382.81;;;-4.15;90.27
3812;BME280;1921;49.368;11.068;2023-02-28T02:48:26;98466.44;;;-3.67;90.38
3812;BME280;1921;49.368;11.068;2023-02-28T02:50:58;98415.16;;;-3.98;90.62
3812;BME280;1921;49.368;11.068;2023-02-28T02:53:32;98444.66;;;-3.74;90.21
3812;BME280;1921;49.368;11.068;2023-02-28T02:56:01;98420.78;;;-3.90;90.36
3812;BME280;1921;49.368;11.068;2023-02-28T02:58:35;98444.91;;;-3.78;90.12
3812;BME280;1921;49.368;11.068;2023-02-28T03:01:10;98476.31;;;-3.59;90.48
3812;BME280;1921;49.368;11.068;2023-02-28T03:03:38;98452.38;;;-3.75;90.15
3812;BME280;1921;49.368;11.068;2023-02-28T03:06:04;98463.84;;;-3.65;90.25
3812;BME280;1921;49.368;11.068;2023-02-28T03:08:36;98355.66;;;-4.35;90.66
3812;BME280;1921;49.368;11.068;2023-02-28T03:11:06;98402.66;;;-4.03;91.15
3812;BME280;1921;49.368;11.068;2023-02-28T03:22:43;98407.13;;;-4.08;90.83
3812;BME280;1921;49.368;11.068;2023-02-28T03:25:26;98489.72;;;-3.56;91.47
3812;BME280;1921;49.368;11.068;2023-02-28T03:34:04;98490.28;;;-3.68;92.23
3812;BME280;1921;49.368;11.068;2023-02-28T03:36:43;98487.09;;;-3.73;92.30
3812;BME280;1921;49.368;11.068;2023-02-28T03:39:22;98429.97;;;-4.07;91.68
3812;BME280;1921;49.368;11.068;2023-02-28T03:42:07;98422.59;;;-4.13;92.43
3812;BME280;1921;49.368;11.068;2023-02-28T03:45:05;98508.09;;;-3.68;91.84
3812;BME280;1921;49.368;11.068;2023-02-28T03:47:57;98482.41;;;-3.82;92.80
3812;BME280;1921;49.368;11.068;2023-02-28T03:50:38;98377.31;;;-4.45;92.46
3812;BME280;1921;49.368;11.068;2023-02-28T03:53:14;98500.88;;;-3.77;93.31
3812;BME280;1921;49.368;11.068;2023-02-28T03:55:49;98450.69;;;-4.14;93.54
3812;BME280;1921;49.368;11.068;2023-02-28T03:58:37;98503.50;;;-3.78;93.78
3812;BME280;1921;49.368;11.068;2023-02-28T04:01:15;98498.31;;;-3.77;93.58
3812;BME280;1921;49.368;11.068;2023-02-28T04:03:44;98458.25;;;-4.13;93.30
3812;BME280;1921;49.368;11.068;2023-02-28T04:06:16;98460.47;;;-4.05;93.13
3812;BME280;1921;49.368;11.068;2023-02-28T04:08:43;98425.09;;;-4.31;93.65
3812;BME280;1921;49.368;11.068;2023-02-28T04:11:33;98421.72;;;-4.32;93.86
3812;BME280;1921;49.368;11.068;2023-02-28T04:14:01;98378.28;;;-4.68;94.02
3812;BME280;1921;49.368;11.068;2023-02-28T04:16:28;98503.19;;;-3.91;94.56
3812;BME280;1921;49.368;11.068;2023-02-28T04:18:53;98471.47;;;-4.04;94.14
3812;BME280;1921;49.368;11.068;2023-02-28T04:21:19;98409.78;;;-4.50;94.13
3812;BME280;1921;49.368;11.068;2023-02-28T04:23:47;98479.94;;;-4.04;94.16
3812;BME280;1921;49.368;11.068;2023-02-28T04:26:13;98439.09;;;-4.21;94.42
3812;BME280;1921;49.368;11.068;2023-02-28T04:28:39;98426.19;;;-4.37;94.48
3812;BME280;1921;49.368;11.068;2023-02-28T04:31:05;98513.25;;;-3.88;94.16
3812;BME280;1921;49.368;11.068;2023-02-28T04:33:32;98470.97;;;-4.13;94.23
3812;BME280;1921;49.368;11.068;2023-02-28T04:36:08;98436.03;;;-4.29;94.30
3812;BME280;1921;49.368;11.068;2023-02-28T04:38:38;98440.03;;;-4.24;94.05
3812;BME280;1921;49.368;11.068;2023-02-28T04:41:05;98453.41;;;-4.19;94.71
3812;BME280;1921;49.368;11.068;2023-02-28T04:43:32;98522.34;;;-3.83;94.47
3812;BME280;1921;49.368;11.068;2023-02-28T04:46:01;98470.47;;;-4.00;94.95
3812;BME280;1921;49.368;11.068;2023-02-28T04:48:33;98406.06;;;-4.43;94.80
3812;BME280;1921;49.368;11.068;2023-02-28T04:51:01;98453.28;;;-4.16;94.72
3812;BME280;1921;49.368;11.068;2023-02-28T04:53:28;98492.16;;;-3.92;94.93
3812;BME280;1921;49.368;11.068;2023-02-28T04:55:55;98479.75;;;-3.99;94.81
3812;BME280;1921;49.368;11.068;2023-02-28T04:58:21;98504.06;;;-3.92;94.47
3812;BME280;1921;49.368;11.068;2023-02-28T05:00:50;98479.63;;;-3.96;94.52
3812;BME280;1921;49.368;11.068;2023-02-28T05:03:16;98338.16;;;-4.82;94.20
3812;BME280;1921;49.368;11.068;2023-02-28T05:05:41;98402.88;;;-4.48;94.55
3812;BME280;1921;49.368;11.068;2023-02-28T05:08:07;98482.38;;;-4.01;94.92
3812;BME280;1921;49.368;11.068;2023-02-28T05:10:33;98388.91;;;-4.58;94.34
3812;BME280;1921;49.368;11.068;2023-02-28T05:12:59;98464.88;;;-4.09;94.45
3812;BME280;1921;49.368;11.068;2023-02-28T05:15:25;98418.69;;;-4.40;94.26
3812;BME280;1921;49.368;11.068;2023-02-28T05:17:50;98419.38;;;-4.37;94.05
3812;BME280;1921;49.368;11.068;2023-02-28T05:20:16;98497.69;;;-3.82;94.13
3812;BME280;1921;49.368;11.068;2023-02-28T05:22:43;98441.66;;;-4.21;94.64
3812;BME280;1921;49.368;11.068;2023-02-28T05:25:16;98433.47;;;-4.29;94.64
3812;BME280;1921;49.368;11.068;2023-02-28T05:27:43;98483.34;;;-4.03;94.01
3812;BME280;1921;49.368;11.068;2023-02-28T05:30:10;98466.78;;;-4.14;94.72
3812;BME280;1921;49.368;11.068;2023-02-28T05:32:37;98477.47;;;-4.06;94.40
3812;BME280;1921;49.368;11.068;2023-02-28T05:35:04;98497.91;;;-4.07;94.00
3812;BME280;1921;49.368;11.068;2023-02-28T05:37:30;98471.88;;;-4.14;94.76
3812;BME280;1921;49.368;11.068;2023-02-28T05:39:56;98492.41;;;-3.98;94.37
3812;BME280;1921;49.368;11.068;2023-02-28T05:42:22;98509.16;;;-3.92;94.69
3812;BME280;1921;49.368;11.068;2023-02-28T05:44:47;98466.84;;;-4.15;94.52
3812;BME280;1921;49.368;11.068;2023-02-28T05:47:13;98476.81;;;-4.11;94.01
3812;BME280;1921;49.368;11.068;2023-02-28T05:49:41;98499.38;;;-4.01;94.86
3812;BME280;1921;49.368;11.068;2023-02-28T05:52:07;98490.72;;;-4.18;94.87
3812;BME280;1921;49.368;11.068;2023-02-28T05:54:33;98474.53;;;-4.37;95.41
3812;BME280;1921;49.368;11.068;2023-02-28T05:56:59;98487.50;;;-4.23;95.51
3812;BME280;1921;49.368;11.068;2023-02-28T05:59:25;98402.97;;;-4.70;95.59
3812;BME280;1921;49.368;11.068;2023-02-28T06:01:51;98449.59;;;-4.49;95.73
3812;BME280;1921;49.368;11.068;2023-02-28T06:04:20;98496.84;;;-4.22;95.70
3812;BME280;1921;49.368;11.068;2023-02-28T06:06:47;98509.06;;;-4.10;95.81
3812;BME280;1921;49.368;11.068;2023-02-28T06:09:13;98445.41;;;-4.50;94.98
3812;BME280;1921;49.368;11.068;2023-02-28T06:11:40;98516.22;;;-3.99;95.74
3812;BME280;1921;49.368;11.068;2023-02-28T06:14:07;98445.16;;;-4.44;95.35
3812;BME280;1921;49.368;11.068;2023-02-28T06:16:38;98510.47;;;-4.02;95.60
3812;BME280;1921;49.368;11.068;2023-02-28T06:19:04;98478.03;;;-4.19;94.86
3812;BME280;1921;49.368;11.068;2023-02-28T06:21:30;98481.09;;;-4.11;95.17
3812;BME280;1921;49.368;11.068;2023-02-28T06:23:58;98482.75;;;-4.10;94.52
3812;BME280;1921;49.368;11.068;2023-02-28T06:26:25;98517.50;;;-3.89;95.17
3812;BME280;1921;49.368;11.068;2023-02-28T06:28:51;98494.78;;;-3.93;94.41
3812;BME280;1921;49.368;11.068;2023-02-28T06:31:17;98468.06;;;-4.03;93.82
3812;BME280;1921;49.368;11.068;2023-02-28T06:33:45;98479.47;;;-3.93;93.70
3812;BME280;1921;49.368;11.068;2023-02-28T06:36:13;98472.88;;;-3.97;93.36
3812;BME280;1921;49.368;11.068;2023-02-28T06:38:39;98530.03;;;-3.64;92.46
3812;BME280;1921;49.368;11.068;2023-02-28T06:41:06;98504.25;;;-3.76;93.51
3812;BME280;1921;49.368;11.068;2023-02-28T06:43:38;98496.53;;;-3.75;92.46
3812;BME280;1921;49.368;11.068;2023-02-28T06:46:07;98535.41;;;-3.51;91.33
3812;BME280;1921;49.368;11.068;2023-02-28T06:48:34;98479.41;;;-3.71;90.51
3812;BME280;1921;49.368;11.068;2023-02-28T06:51:09;98521.03;;;-3.33;91.16
3812;BME280;1921;49.368;11.068;2023-02-28T06:53:36;98499.38;;;-3.43;90.50
3812;BME280;1921;49.368;11.068;2023-02-28T06:56:10;98486.28;;;-3.55;89.85
3812;BME280;1921;49.368;11.068;2023-02-28T06:58:36;98501.88;;;-3.42;89.89
3812;BME280;1921;49.368;11.068;2023-02-28T07:01:03;98505.13;;;-3.19;89.85
3812;BME280;1921;49.368;11.068;2023-02-28T07:03:30;98399.69;;;-3.75;87.93
3812;BME280;1921;49.368;11.068;2023-02-28T07:05:56;98501.25;;;-3.09;86.42
3812;BME280;1921;49.368;11.068;2023-02-28T07:08:24;98462.25;;;-3.30;87.11
3812;BME280;1921;49.368;11.068;2023-02-28T07:10:54;98509.56;;;-2.87;85.66
3812;BME280;1921;49.368;11.068;2023-02-28T07:13:21;98465.81;;;-2.96;84.48
3812;BME280;1921;49.368;11.068;2023-02-28T07:16:13;98492.38;;;-2.83;84.04
3812;BME280;1921;49.368;11.068;2023-02-28T07:18:39;98547.41;;;-2.59;83.44
3812;BME280;1921;49.368;11.068;2023-02-28T07:21:08;98551.09;;;-2.47;83.29
3812;BME280;1921;49.368;11.068;2023-02-28T07:23:34;98514.13;;;-2.57;82.36
3812;BME280;1921;49.368;11.068;2023-02-28T07:26:00;98554.22;;;-2.23;82.03
3812;BME280;1921;49.368;11.068;2023-02-28T07:28:26;98551.19;;;-1.97;80.32
3812;BME280;1921;49.368;11.068;2023-02-28T07:30:52;98538.88;;;-2.06;78.02
3812;BME280;1921;49.368;11.068;2023-02-28T07:33:17;98537.38;;;-2.10;79.85
3812;BME280;1921;49.368;11.068;2023-02-28T07:35:44;98530.16;;;-2.02;78.12
3812;BME280;1921;49.368;11.068;2023-02-28T07:38:09;98495.47;;;-2.23;77.37
3812;BME280;1921;49.368;11.068;2023-02-28T07:40:36;98483.34;;;-2.20;76.91
3812;BME280;1921;49.368;11.068;2023-02-28T07:43:03;98569.72;;;-1.58;76.40
3812;BME280;1921;49.368;11.068;2023-02-28T07:45:29;98539.13;;;-1.60;76.37
3812;BME280;1921;49.368;11.068;2023-02-28T07:47:57;98518.50;;;-1.57;75.80
3812;BME280;1921;49.368;11.068;2023-02-28T07:50:22;98495.38;;;-1.71;73.93
3812;BME280;1921;49.368;11.068;2023-02-28T07:52:48;98543.97;;;-1.71;73.54
3812;BME280;1921;49.368;11.068;2023-02-28T07:55:14;98514.78;;;-1.67;74.29
3812;BME280;1921;49.368;11.068;2023-02-28T07:57:42;98556.41;;;-1.48;74.83
3812;BME280;1921;49.368;11.068;2023-02-28T08:00:10;98509.19;;;-1.58;73.33
3812;BME280;1921;49.368;11.068;2023-02-28T08:02:36;98535.22;;;-1.34;72.00
3812;BME280;1921;49.368;11.068;2023-02-28T08:05:02;98541.34;;;-1.21;73.77
3812;BME280;1921;49.368;11.068;2023-02-28T08:07:28;98547.56;;;-1.09;72.51
3812;BME280;1921;49.368;11.068;2023-02-28T08:09:54;98512.78;;;-1.29;72.20
3812;BME280;1921;49.368;11.068;2023-02-28T08:12:20;98529.81;;;-0.96;71.62
3812;BME280;1921;49.368;11.068;2023-02-28T08:14:46;98543.78;;;-0.86;71.81
3812;BME280;1921;49.368;11.068;2023-02-28T08:17:11;98529.25;;;-0.86;71.26
3812;BME280;1921;49.368;11.068;2023-02-28T08:19:37;98527.41;;;-0.84;71.12
3812;BME280;1921;49.368;11.068;2023-02-28T08:22:04;98543.81;;;-0.56;71.00
3812;BME280;1921;49.368;11.068;2023-02-28T08:24:30;98536.91;;;-1.01;70.10
3812;BME280;1921;49.368;11.068;2023-02-28T08:26:56;98555.44;;;-0.35;70.91
3812;BME280;1921;49.368;11.068;2023-02-28T08:29:22;98576.44;;;0.32;69.70
3812;BME280;1921;49.368;11.068;2023-02-28T08:31:48;98496.97;;;-0.42;68.17
3812;BME280;1921;49.368;11.068;2023-02-28T08:34:15;98539.59;;;-0.41;67.75
3812;BME280;1921;49.368;11.068;2023-02-28T08:36:41;98526.56;;;-0.52;68.48
3812;BME280;1921;49.368;11.068;2023-02-28T08:39:12;98498.03;;;-0.46;67.39
3812;BME280;1921;49.368;11.068;2023-02-28T08:41:37;98554.72;;;-0.07;67.50
3812;BME280;1921;49.368;11.068;2023-02-28T08:44:03;98541.25;;;0.34;66.70
3812;BME280;1921;49.368;11.068;2023-02-28T08:46:29;98503.53;;;0.06;65.37
3812;BME280;1921;49.368;11.068;2023-02-28T08:48:56;98533.81;;;1.01;62.16
3812;BME280;1921;49.368;11.068;2023-02-28T08:51:27;98487.50;;;0.74;63.74
3812;BME280;1921;49.368;11.068;2023-02-28T08:53:58;98570.81;;;1.25;61.86
3812;BME280;1921;49.368;11.068;2023-02-28T08:56:26;98549.59;;;0.66;64.52
3812;BME280;1921;49.368;11.068;2023-02-28T08:58:55;98408.59;;;-0.65;65.18
3812;BME280;1921;49.368;11.068;2023-02-28T09:01:25;98498.09;;;0.41;65.12
3812;BME280;1921;49.368;11.068;2023-02-28T09:03:53;98564.13;;;1.08;62.98
3812;BME280;1921;49.368;11.068;2023-02-28T09:06:21;98507.19;;;1.02;63.10
3812;BME280;1921;49.368;11.068;2023-02-28T09:08:47;98584.22;;;1.57;59.91
3812;BME280;1921;49.368;11.068;2023-02-28T09:11:13;98531.69;;;2.14;60.51
3812;BME280;1921;49.368;11.068;2023-02-28T09:13:40;98552.00;;;2.31;58.96
3812;BME280;1921;49.368;11.068;2023-02-28T09:16:10;98563.59;;;1.45;59.22
3812;BME280;1921;49.368;11.068;2023-02-28T09:18:37;98486.59;;;1.16;59.51
3812;BME280;1921;49.368;11.068;2023-02-28T09:21:15;98526.00;;;1.83;60.62
3812;BME280;1921;49.368;11.068;2023-02-28T09:23:43;98521.41;;;1.34;59.37
3812;BME280;1921;49.368;11.068;2023-02-28T09:26:21;98533.06;;;1.40;58.52
3812;BME280;1921;49.368;11.068;2023-02-28T09:28:47;98495.06;;;1.18;61.00
3812;BME280;1921;49.368;11.068;2023-02-28T09:31:25;98562.22;;;1.93;57.61
3812;BME280;1921;49.368;11.068;2023-02-28T09:33:54;98510.28;;;2.01;57.44
3812;BME280;1921;49.368;11.068;2023-02-28T09:36:20;98511.41;;;1.30;58.43
3812;BME280;1921;49.368;11.068;2023-02-28T09:38:47;98534.50;;;2.36;57.59
3812;BME280;1921;49.368;11.068;2023-02-28T09:41:41;98556.06;;;1.56;58.02
3812;BME280;1921;49.368;11.068;2023-02-28T09:47:12;98583.03;;;2.03;56.46
3812;BME280;1921;49.368;11.068;2023-02-28T09:49:46;98565.25;;;1.46;58.68
3812;BME280;1921;49.368;11.068;2023-02-28T09:52:21;98553.41;;;2.10;57.94
3812;BME280;1921;49.368;11.068;2023-02-28T09:54:49;98518.50;;;1.93;56.18
3812;BME280;1921;49.368;11.068;2023-02-28T09:57:36;98500.41;;;1.28;57.15
3812;BME280;1921;49.368;11.068;2023-02-28T10:06:13;98528.38;;;1.86;56.36
3812;BME280;1921;49.368;11.068;2023-02-28T10:11:40;98554.19;;;1.58;56.57
3812;BME280;1921;49.368;11.068;2023-02-28T10:14:26;98506.66;;;0.97;56.76
3812;BME280;1921;49.368;11.068;2023-02-28T10:17:16;98592.53;;;1.34;57.95
3812;BME280;1921;49.368;11.068;2023-02-28T10:20:10;98427.09;;;1.10;55.73
3812;BME280;1921;49.368;11.068;2023-02-28T10:23:18;98532.78;;;1.45;55.98
3812;BME280;1921;49.368;11.068;2023-02-28T10:26:00;98555.38;;;1.79;56.41
3812;BME280;1921;49.368;11.068;2023-02-28T10:28:29;98527.06;;;2.06;56.37
3812;BME280;1921;49.368;11.068;2023-02-28T10:30:57;98544.19;;;1.80;55.56
3812;BME280;1921;49.368;11.068;2023-02-28T10:33:42;98515.81;;;1.55;55.78
3812;BME280;1921;49.368;11.068;2023-02-28T10:36:16;98566.31;;;1.83;55.82
3812;BME280;1921;49.368;11.068;2023-02-28T10:38:43;98516.91;;;1.38;55.68
3812;BME280;1921;49.368;11.068;2023-02-28T10:41:18;98510.38;;;1.99;54.34
3812;BME280;1921;49.368;11.068;2023-02-28T10:43:53;98570.03;;;3.19;53.27
3812;BME280;1921;49.368;11.068;2023-02-28T10:46:40;98552.94;;;2.56;54.20
3812;BME280;1921;49.368;11.068;2023-02-28T10:49:22;98530.66;;;2.42;53.05
3812;BME280;1921;49.368;11.068;2023-02-28T10:55:29;98512.47;;;2.20;53.41
3812;BME280;1921;49.368;11.068;2023-02-28T10:57:55;98509.44;;;3.13;51.85
3812;BME280;1921;49.368;11.068;2023-02-28T11:00:24;98498.69;;;3.43;50.85
3812;BME280;1921;49.368;11.068;2023-02-28T11:02:51;98515.31;;;3.98;49.03
3812;BME280;1921;49.368;11.068;2023-02-28T11:05:28;98565.69;;;3.56;50.90
3812;BME280;1921;49.368;11.068;2023-02-28T11:08:06;98536.19;;;3.36;50.85
3812;BME280;1921;49.368;11.068;2023-02-28T11:10:36;98562.00;;;3.23;51.80
3812;BME280;1921;49.368;11.068;2023-02-28T11:13:03;98502.84;;;3.57;50.81
3812;BME280;1921;49.368;11.068;2023-02-28T11:15:34;98545.31;;;4.23;48.14
3812;BME280;1921;49.368;11.068;2023-02-28T11:21:34;98513.00;;;3.71;51.77
3812;BME280;1921;49.368;11.068;2023-02-28T11:24:34;98570.75;;;4.28;49.75
3812;BME280;1921;49.368;11.068;2023-02-28T11:27:01;98513.00;;;3.71;49.85
3812;BME280;1921;49.368;11.068;2023-02-28T11:29:30;98500.66;;;3.40;49.25
3812;BME280;1921;49.368;11.068;2023-02-28T11:32:09;98556.25;;;4.72;48.24
3812;BME280;1921;49.368;11.068;2023-02-28T11:34:38;98516.31;;;4.31;48.53
3812;BME280;1921;49.368;11.068;2023-02-28T11:37:11;98514.97;;;3.92;47.26
3812;BME280;1921;49.368;11.068;2023-02-28T11:39:37;98520.78;;;3.83;49.40
3812;BME280;1921;49.368;11.068;2023-02-28T11:48:01;98496.16;;;4.36;48.03
3812;BME280;1921;49.368;11.068;2023-02-28T11:56:05;98512.69;;;4.22;48.66
3812;BME280;1921;49.368;11.068;2023-02-28T12:01:28;98549.31;;;3.92;49.03
3812;BME280;1921;49.368;11.068;2023-02-28T12:07:03;98544.97;;;4.84;47.54
3812;BME280;1921;49.368;11.068;2023-02-28T12:19:12;98546.34;;;4.21;48.54
3812;BME280;1921;49.368;11.068;2023-02-28T12:27:37;98449.59;;;3.45;48.69
3812;BME280;1921;49.368;11.068;2023-02-28T12:30:21;98484.34;;;4.10;48.58
3812;BME280;1921;49.368;11.068;2023-02-28T12:35:37;98493.03;;;5.85;44.35
3812;BME280;1921;49.368;11.068;2023-02-28T12:38:10;98510.41;;;5.83;44.63
3812;BME280;1921;49.368;11.068;2023-02-28T12:40:54;98524.09;;;4.76;47.71
3812;BME280;1921;49.368;11.068;2023-02-28T12:43:21;98514.22;;;4.36;47.72
3812;BME280;1921;49.368;11.068;2023-02-28T12:46:00;98524.03;;;5.21;46.78
3812;BME280;1921;49.368;11.068;2023-02-28T12:48:53;98515.34;;;5.22;46.80
3812;BME280;1921;49.368;11.068;2023-02-28T12:51:22;98448.25;;;4.54;47.04
3812;BME280;1921;49.368;11.068;2023-02-28T12:59:32;98516.69;;;5.48;45.98
3812;BME280;1921;49.368;11.068;2023-02-28T13:11:32;98493.81;;;7.87;42.25
3812;BME280;1921;49.368;11.068;2023-02-28T13:14:02;98474.88;;;8.33;40.67
3812;BME280;1921;49.368;11.068;2023-02-28T13:19:45;98509.09;;;7.99;40.59
3812;BME280;1921;49.368;11.068;2023-02-28T13:22:45;98463.91;;;4.96;46.22
3812;BME280;1921;49.368;11.068;2023-02-28T13:28:10;98476.06;;;5.28;45.86
3812;BME280;1921;49.368;11.068;2023-02-28T13:33:31;98427.47;;;5.10;45.90
3812;BME280;1921;49.368;11.068;2023-02-28T13:38:44;98509.09;;;8.09;42.63
3812;BME280;1921;49.368;11.068;2023-02-28T13:44:13;98485.31;;;4.98;46.17
3812;BME280;1921;49.368;11.068;2023-02-28T13:52:12;98486.00;;;5.11;46.67
3812;BME280;1921;49.368;11.068;2023-02-28T13:54:56;98515.16;;;4.46;48.68
3812;BME280;1921;49.368;11.068;2023-02-28T13:57:36;98508.97;;;4.60;48.59
3812;BME280;1921;49.368;11.068;2023-02-28T14:00:52;98513.69;;;5.21;47.80
3812;BME280;1921;49.368;11.068;2023-02-28T14:06:53;98435.31;;;4.10;49.12
3812;BME280;1921;49.368;11.068;2023-02-28T14:09:38;98504.09;;;4.33;49.32
3812;BME280;1921;49.368;11.068;2023-02-28T14:15:44;98501.06;;;4.50;48.66
3812;BME280;1921;49.368;11.068;2023-02-28T14:21:25;98504.84;;;4.91;47.79
3812;BME280;1921;49.368;11.068;2023-02-28T14:27:03;98513.88;;;4.63;49.82
3812;BME280;1921;49.368;11.068;2023-02-28T14:38:28;98484.50;;;4.53;48.74
3812;BME280;1921;49.368;11.068;2023-02-28T14:40:58;98456.53;;;3.91;49.87
3812;BME280;1921;49.368;11.068;2023-02-28T14:43:28;98450.09;;;3.85;50.76
3812;BME280;1921;49.368;11.068;2023-02-28T14:46:00;98438.22;;;3.83;50.49
3812;BME280;1921;49.368;11.068;2023-02-28T14:48:27;98449.16;;;4.76;50.23
3812;BME280;1921;49.368;11.068;2023-02-28T14:50:59;98415.38;;;4.45;49.57
3812;BME280;1921;49.368;11.068;2023-02-28T14:53:35;98435.34;;;4.54;49.57
3812;BME280;1921;49.368;11.068;2023-02-28T14:56:02;98443.81;;;5.43;47.67
3812;BME280;1921;49.368;11.068;2023-02-28T14:58:32;98478.22;;;5.11;48.81
3812;BME280;1921;49.368;11.068;2023-02-28T15:01:02;98429.75;;;4.93;49.17
3812;BME280;1921;49.368;11.068;2023-02-28T15:03:39;98438.56;;;4.90;48.61
3812;BME280;1921;49.368;11.068;2023-02-28T15:06:17;98448.69;;;4.15;49.86
3812;BME280;1921;49.368;11.068;2023-02-28T15:08:44;98497.06;;;4.24;51.23
3812;BME280;1921;49.368;11.068;2023-02-28T15:11:19;98431.59;;;4.25;50.22
3812;BME280;1921;49.368;11.068;2023-02-28T15:13:53;98453.75;;;4.39;50.24
3812;BME280;1921;49.368;11.068;2023-02-28T15:16:37;98482.06;;;4.51;49.11
3812;BME280;1921;49.368;11.068;2023-02-28T15:19:22;98467.41;;;5.71;47.75
3812;BME280;1921;49.368;11.068;2023-02-28T15:21:59;98468.69;;;5.55;47.25
3812;BME280;1921;49.368;11.068;2023-02-28T15:24:37;98347.56;;;4.21;49.34
3812;BME280;1921;49.368;11.068;2023-02-28T15:27:10;98383.69;;;5.72;46.96
3812;BME280;1921;49.368;11.068;2023-02-28T15:29:50;98469.22;;;7.71;43.39
3812;BME280;1921;49.368;11.068;2023-02-28T15:32:30;98499.13;;;6.16;45.49
3812;BME280;1921;49.368;11.068;2023-02-28T15:34:58;98500.09;;;4.96;47.87
3812;BME280;1921;49.368;11.068;2023-02-28T15:37:47;98493.56;;;4.36;49.55
3812;BME280;1921;49.368;11.068;2023-02-28T15:40:23;98502.19;;;4.01;50.33
3812;BME280;1921;49.368;11.068;2023-02-28T15:43:29;98492.25;;;4.30;50.26
3812;BME280;1921;49.368;11.068;2023-02-28T15:46:04;98499.81;;;3.87;51.63
3812;BME280;1921;49.368;11.068;2023-02-28T15:48:55;98509.72;;;4.04;50.64
3812;BME280;1921;49.368;11.068;2023-02-28T15:51:34;98432.97;;;3.95;50.85
3812;BME280;1921;49.368;11.068;2023-02-28T15:54:06;98465.94;;;3.92;51.14
3812;BME280;1921;49.368;11.068;2023-02-28T15:56:47;98494.84;;;3.73;51.38